Time;durP1;ratioP1;P1;durP2;ratioP2;P2;SDS_P1;SDS_P2;PMS_P1;PMS_P2;Temp;Humidity;BMP_temperature;BMP_pressure;BME280_temperature;BME280_humidity;BME280_pressure;Samples;Min_cycle;Max_cycle;Signal;HPM_P1;HPM_P2
2021/12/17 00:04:58;;;;;;;;;;;;;;;6.06;55.27;100448.88;5033187;28;19928;-80
2021/12/17 00:07:25;;;;;;;;;;;;;;;6.02;55.20;100447.94;5030050;28;19923;-79
2021/12/17 00:09:52;;;;;;;;;;;;;;;5.95;54.79;100447.78;5041861;28;19921;-79
2021/12/17 00:12:19;;;;;;;;;;;;;;;6.12;54.72;100445.47;5041945;28;19920;-79
2021/12/17 00:14:48;;;;;;;;;;;;;;;6.15;54.57;100437.66;5026899;28;19956;-79
2021/12/17 00:17:18;;;;;;;;;;;;;;;6.10;54.62;100442.81;5026389;28;21584;-81
2021/12/17 00:49:30;;;;;;;;;;;;;;;6.06;54.97;100438.41;5036107;28;20272;-80
2021/12/17 00:51:57;;;;;;;;;;;;;;;5.95;54.77;100434.69;5046306;28;19921;-79
2021/12/17 00:54:34;;;;;;;;;;;;;;;5.99;54.84;100433.94;5033976;28;19967;-79
2021/12/17 00:57:03;;;;;;;;;;;;;;;6.11;54.75;100447.22;4981493;28;1307632;-79
2021/12/17 00:59:28;;;;;;;;;;;;;;;6.09;54.87;100441.06;5035993;28;19920;-79
2021/12/17 01:01:55;;;;;;;;;;;;;;;6.16;55.04;100447.28;5046678;28;19920;-79
2021/12/17 01:04:21;;;;;;;;;;;;;;;6.00;54.52;100435.69;5047068;28;19917;-79
2021/12/17 01:06:46;;;;;;;;;;;;;;;5.99;55.22;100439.16;5049467;28;20306;-81
2021/12/17 01:09:14;;;;;;;;;;;;;;;6.18;54.57;100432.47;5044418;28;19921;-80
2021/12/17 01:11:40;;;;;;;;;;;;;;;6.15;54.30;100430.69;5030720;28;19970;-79
2021/12/17 01:14:05;;;;;;;;;;;;;;;5.98;54.26;100422.59;5030808;28;20357;-79
2021/12/17 01:16:31;;;;;;;;;;;;;;;6.19;54.37;100424.63;5032647;28;19925;-79
2021/12/17 01:21:36;;;;;;;;;;;;;;;6.07;54.26;100416.56;5043661;28;20314;-79
2021/12/17 01:38:36;;;;;;;;;;;;;;;6.12;55.18;100430.66;5048575;28;19947;-79
2021/12/17 01:43:13;;;;;;;;;;;;;;;6.00;55.09;100419.97;5030006;28;19920;-79
2021/12/17 01:45:41;;;;;;;;;;;;;;;6.15;55.14;100421.94;5049816;28;20023;-79
2021/12/17 01:48:10;;;;;;;;;;;;;;;6.07;54.63;100412.25;5050620;28;19917;-80
2021/12/17 01:56:53;;;;;;;;;;;;;;;6.08;54.87;100407.88;5050115;28;20452;-79
2021/12/17 02:01:35;;;;;;;;;;;;;;;6.19;55.16;100403.66;5031472;28;19927;-80
2021/12/17 02:04:03;;;;;;;;;;;;;;;5.95;55.46;100404.16;5028764;28;19916;-79
2021/12/17 02:06:30;;;;;;;;;;;;;;;5.96;55.05;100395.44;5030345;28;20002;-79
2021/12/17 02:08:58;;;;;;;;;;;;;;;5.98;55.18;100399.00;5029981;28;19919;-79
2021/12/17 02:19:47;;;;;;;;;;;;;;;5.85;56.35;100389.16;5049621;28;19919;-78
2021/12/17 02:31:05;;;;;;;;;;;;;;;5.86;57.00;100376.09;5039666;28;19978;-78
2021/12/17 02:33:30;;;;;;;;;;;;;;;6.01;57.01;100382.44;5049378;28;19924;-79
2021/12/17 02:35:56;;;;;;;;;;;;;;;5.83;57.42;100376.03;5049363;28;19928;-78
2021/12/17 02:38:21;;;;;;;;;;;;;;;5.84;56.64;100374.28;5049455;28;19954;-78
2021/12/17 02:46:14;;;;;;;;;;;;;;;5.92;56.48;100373.56;5030254;28;19924;-79
2021/12/17 02:48:41;;;;;;;;;;;;;;;5.75;56.72;100372.44;5029336;28;19917;-78
2021/12/17 02:51:06;;;;;;;;;;;;;;;5.92;56.46;100375.31;5045761;28;19925;-78
2021/12/17 02:53:32;;;;;;;;;;;;;;;5.88;56.25;100374.38;5049045;28;19982;-79
2021/12/17 02:55:59;;;;;;;;;;;;;;;5.98;56.28;100371.91;5049014;28;19956;-79
2021/12/17 02:58:26;;;;;;;;;;;;;;;5.87;56.19;100369.09;5043752;28;20039;-79
2021/12/17 03:00:52;;;;;;;;;;;;;;;5.88;56.61;100373.50;5043175;28;19927;-81
2021/12/17 03:03:20;;;;;;;;;;;;;;;5.87;56.90;100376.97;5047864;28;19916;-80
2021/12/17 03:05:46;;;;;;;;;;;;;;;5.85;56.79;100373.44;5048590;28;19917;-79
2021/12/17 03:08:14;;;;;;;;;;;;;;;5.89;56.57;100378.75;5048441;28;20375;-79
2021/12/17 03:10:40;;;;;;;;;;;;;;;5.75;56.44;100382.91;5033530;28;19917;-79
2021/12/17 03:13:06;;;;;;;;;;;;;;;5.87;56.53;100383.09;5028158;28;19921;-79
2021/12/17 03:15:40;;;;;;;;;;;;;;;5.84;57.02;100382.16;5028409;28;19967;-79
2021/12/17 03:26:02;;;;;;;;;;;;;;;5.71;57.10;100392.44;5028549;28;19956;-79
2021/12/17 03:28:28;;;;;;;;;;;;;;;5.68;57.80;100391.50;5025904;28;20379;-79
2021/12/17 03:30:54;;;;;;;;;;;;;;;5.50;57.51;100397.31;5039774;28;19924;-79
2021/12/17 03:33:20;;;;;;;;;;;;;;;5.60;57.61;100393.13;5027947;28;20016;-80
2021/12/17 03:35:46;;;;;;;;;;;;;;;5.54;58.09;100399.16;5031178;28;19916;-79
2021/12/17 03:38:11;;;;;;;;;;;;;;;5.59;57.36;100400.09;5047380;28;19916;-80
2021/12/17 03:40:39;;;;;;;;;;;;;;;5.65;57.76;100400.19;5031220;28;19943;-78
2021/12/17 03:43:11;;;;;;;;;;;;;;;5.60;57.51;100396.63;5038595;28;19959;-79
2021/12/17 03:45:37;;;;;;;;;;;;;;;5.69;57.97;100398.53;5047066;28;19995;-79
2021/12/17 03:48:02;;;;;;;;;;;;;;;5.64;57.77;100393.22;5047938;28;19951;-79
2021/12/17 03:50:28;;;;;;;;;;;;;;;5.65;57.81;100387.09;5029771;28;20383;-79
2021/12/17 03:52:53;;;;;;;;;;;;;;;5.70;57.29;100382.84;5028282;28;20310;-79
2021/12/17 03:55:19;;;;;;;;;;;;;;;5.60;57.70;100386.16;5028021;28;19920;-79
2021/12/17 03:57:44;;;;;;;;;;;;;;;5.69;57.67;100382.81;5028757;28;19928;-79
2021/12/17 04:00:11;;;;;;;;;;;;;;;5.89;56.95;100378.75;5030880;28;19921;-80
2021/12/17 04:02:37;;;;;;;;;;;;;;;5.78;57.24;100372.50;5027811;28;19963;-80
2021/12/17 04:05:02;;;;;;;;;;;;;;;5.78;57.39;100372.50;5027988;28;19960;-80
2021/12/17 04:07:28;;;;;;;;;;;;;;;5.89;57.09;100378.75;5029352;28;19921;-81
2021/12/17 04:09:53;;;;;;;;;;;;;;;5.96;56.86;100381.47;5029978;28;19945;-83
2021/12/17 04:12:23;;;;;;;;;;;;;;;5.99;56.86;100381.53;5027665;28;19917;-84
2021/12/17 04:14:49;;;;;;;;;;;;;;;5.90;56.81;100377.00;5027638;28;20008;-86
2021/12/17 04:17:22;;;;;;;;;;;;;;;6.08;56.99;100371.19;5029124;28;20007;-86
2021/12/17 04:19:47;;;;;;;;;;;;;;;5.92;56.98;100370.94;5049315;28;19917;-83
2021/12/17 04:22:13;;;;;;;;;;;;;;;6.05;56.95;100369.41;5028043;28;19920;-83
2021/12/17 04:24:38;;;;;;;;;;;;;;;6.06;56.64;100370.31;5027455;28;20308;-84
2021/12/17 04:27:04;;;;;;;;;;;;;;;6.01;56.76;100367.63;5026974;28;19971;-84
2021/12/17 04:29:30;;;;;;;;;;;;;;;6.15;56.38;100373.06;5028414;28;19924;-83
2021/12/17 04:31:56;;;;;;;;;;;;;;;6.15;56.46;100369.53;5026767;28;20306;-83
2021/12/17 04:34:22;;;;;;;;;;;;;;;6.18;56.61;100370.47;5026879;28;19921;-81
2021/12/17 04:36:50;;;;;;;;;;;;;;;6.11;56.34;100375.63;5026618;28;19970;-83
2021/12/17 04:39:20;;;;;;;;;;;;;;;6.08;56.97;100379.06;5028296;28;19921;-80
2021/12/17 04:44:24;;;;;;;;;;;;;;;6.22;56.68;100382.75;5027293;28;19936;-82
2021/12/17 04:47:01;;;;;;;;;;;;;;;6.22;56.09;100374.00;5027574;28;19921;-82
2021/12/17 04:57:40;;;;;;;;;;;;;;;6.28;55.95;100361.88;5046343;28;19975;-81
2021/12/17 05:00:15;;;;;;;;;;;;;;;6.25;56.27;100371.44;5027854;28;20412;-81
2021/12/17 05:02:44;;;;;;;;;;;;;;;6.22;55.92;100380.13;5027383;28;20438;-81
2021/12/17 05:05:11;;;;;;;;;;;;;;;6.09;56.32;100372.97;5039631;28;19928;-81
2021/12/17 05:07:40;;;;;;;;;;;;;;;5.99;56.53;100365.84;5044828;28;19920;-81
2021/12/17 05:10:19;;;;;;;;;;;;;;;6.13;56.63;100361.66;5025910;28;20780;-80
2021/12/17 05:20:49;;;;;;;;;;;;;;;6.04;56.33;100346.72;5040447;28;20320;-81
2021/12/17 05:23:15;;;;;;;;;;;;;;;5.96;56.50;100357.91;5035110;28;19983;-81
2021/12/17 05:25:40;;;;;;;;;;;;;;;5.98;56.37;100357.09;5047117;28;19913;-79
2021/12/17 05:28:06;;;;;;;;;;;;;;;6.03;56.40;100354.56;5044748;28;19917;-80
2021/12/17 05:30:32;;;;;;;;;;;;;;;5.98;56.38;100349.25;5027748;28;19928;-80
2021/12/17 05:32:57;;;;;;;;;;;;;;;6.07;55.91;100345.84;5026463;28;19952;-79
2021/12/17 05:35:23;;;;;;;;;;;;;;;6.23;55.68;100350.44;5026984;28;20395;-80
2021/12/17 05:37:49;;;;;;;;;;;;;;;6.14;55.57;100342.47;5026835;28;19960;-79
2021/12/17 05:40:15;;;;;;;;;;;;;;;6.18;55.68;100339.03;5027025;28;19963;-80
2021/12/17 05:42:42;;;;;;;;;;;;;;;6.29;54.75;100331.31;5027192;28;19971;-79
2021/12/17 05:45:20;;;;;;;;;;;;;;;6.18;54.91;100325.03;5026747;28;20001;-80
2021/12/17 05:47:46;;;;;;;;;;;;;;;6.17;54.69;100324.16;5034969;28;19913;-79
2021/12/17 05:50:11;;;;;;;;;;;;;;;6.20;54.48;100315.47;5026539;28;19921;-79
2021/12/17 05:52:36;;;;;;;;;;;;;;;6.32;54.87;100314.72;5028865;28;19921;-79
2021/12/17 05:55:02;;;;;;;;;;;;;;;6.45;54.35;100312.28;5048618;28;20379;-79
2021/12/17 05:57:27;;;;;;;;;;;;;;;6.36;53.75;100321.78;5047415;28;19920;-82
2021/12/17 05:59:52;;;;;;;;;;;;;;;6.38;54.89;100327.91;5033902;28;19917;-81
2021/12/17 06:02:19;;;;;;;;;;;;;;;6.50;54.27;100324.56;5034591;28;19994;-82
2021/12/17 06:04:45;;;;;;;;;;;;;;;6.34;53.93;100318.28;5031339;28;20381;-79
2021/12/17 06:07:10;;;;;;;;;;;;;;;6.40;54.36;100323.59;5034706;28;19921;-79
2021/12/17 06:09:35;;;;;;;;;;;;;;;6.38;54.05;100328.81;5029900;28;20462;-79
2021/12/17 06:12:01;;;;;;;;;;;;;;;6.55;54.17;100333.34;5028993;28;20379;-80
2021/12/17 06:14:26;;;;;;;;;;;;;;;6.61;53.84;100333.44;5029873;28;19986;-80
2021/12/17 06:16:51;;;;;;;;;;;;;;;6.57;53.16;100332.53;5029804;28;19924;-80
2021/12/17 06:19:19;;;;;;;;;;;;;;;6.68;53.52;100327.41;5029481;28;19921;-80
2021/12/17 06:21:46;;;;;;;;;;;;;;;6.42;54.37;100325.34;5029375;28;19917;-80
2021/12/17 06:24:11;;;;;;;;;;;;;;;6.48;53.81;100321.06;5030481;28;20643;-81
2021/12/17 06:26:36;;;;;;;;;;;;;;;6.66;53.54;100320.38;5029029;28;19928;-80
2021/12/17 06:29:01;;;;;;;;;;;;;;;6.68;53.55;100298.56;5029603;28;19924;-81
2021/12/17 06:31:27;;;;;;;;;;;;;;;6.62;54.04;100301.13;5030016;28;19924;-81
2021/12/17 06:33:52;;;;;;;;;;;;;;;6.63;53.84;100295.88;5029151;28;19967;-80
2021/12/17 06:36:18;;;;;;;;;;;;;;;6.62;53.81;100303.75;5029581;28;19973;-80
2021/12/17 06:38:43;;;;;;;;;;;;;;;6.61;54.22;100308.09;5029875;28;20306;-79
2021/12/17 06:41:08;;;;;;;;;;;;;;;6.65;53.52;100305.53;5030111;28;19999;-80
2021/12/17 06:43:39;;;;;;;;;;;;;;;6.72;53.19;100315.19;5029329;28;20011;-80
2021/12/17 06:48:55;;;;;;;;;;;;;;;6.56;54.31;100317.66;5029294;28;19970;-81
2021/12/17 06:59:40;;;;;;;;;;;;;;;6.59;54.21;100324.69;5029182;28;19924;-80
2021/12/17 07:10:42;;;;;;;;;;;;;;;6.67;54.88;100327.38;5028819;28;19924;-81
2021/12/17 07:34:43;;;;;;;;;;;;;;;6.66;56.21;100342.25;5028147;28;19968;-81
2021/12/17 07:39:34;;;;;;;;;;;;;;;6.85;56.46;100338.06;5028842;28;20399;-80
2021/12/17 07:42:00;;;;;;;;;;;;;;;7.05;56.14;100326.91;5027873;28;19917;-80
2021/12/17 07:44:25;;;;;;;;;;;;;;;6.94;56.08;100332.06;5028340;28;19999;-80
2021/12/17 07:46:51;;;;;;;;;;;;;;;7.03;55.98;100321.66;5027544;28;20387;-80
2021/12/17 07:49:17;;;;;;;;;;;;;;;7.08;56.42;100324.31;5027979;28;19975;-80
2021/12/17 07:51:42;;;;;;;;;;;;;;;7.10;56.27;100325.19;5028689;28;20036;-79
2021/12/17 07:54:07;;;;;;;;;;;;;;;7.15;56.90;100311.25;5028144;28;19917;-80
2021/12/17 07:56:38;;;;;;;;;;;;;;;7.17;56.29;100309.53;5028436;28;19921;-79
2021/12/17 07:59:10;;;;;;;;;;;;;;;7.26;56.36;100308.72;5027450;28;19917;-81
2021/12/17 08:01:36;;;;;;;;;;;;;;;7.22;55.92;100309.56;5027747;28;20046;-80
2021/12/17 08:04:05;;;;;;;;;;;;;;;7.27;56.15;100293.84;5027935;28;19924;-82
2021/12/17 08:06:31;;;;;;;;;;;;;;;7.24;55.16;100292.06;5027476;28;19927;-79
2021/12/17 08:08:57;;;;;;;;;;;;;;;7.25;55.57;100293.84;5027923;28;19921;-79
2021/12/17 08:11:22;;;;;;;;;;;;;;;7.44;55.35;100299.22;5028322;28;19939;-80
2021/12/17 08:13:48;;;;;;;;;;;;;;;7.44;54.43;100304.47;5026975;28;20326;-82
2021/12/17 08:16:34;;;;;;;;;;;;;;;7.52;55.02;100280.06;5027786;28;19975;-80
2021/12/17 08:29:44;;;;;;;;;;;;;;;7.67;54.90;100286.25;5027681;28;19917;-79
2021/12/17 08:32:10;;;;;;;;;;;;;;;7.96;54.62;100289.06;5026924;28;20034;-80
2021/12/17 08:34:35;;;;;;;;;;;;;;;7.91;53.44;100289.88;5027564;28;20434;-80
2021/12/17 08:37:01;;;;;;;;;;;;;;;7.73;54.15;100274.94;5027414;28;20012;-80
2021/12/17 08:39:29;;;;;;;;;;;;;;;7.61;54.00;100278.34;5027155;28;20405;-78
2021/12/17 08:41:55;;;;;;;;;;;;;;;7.67;54.00;100279.25;5026565;28;19928;-79
2021/12/17 08:44:21;;;;;;;;;;;;;;;7.83;53.66;100282.88;5027550;28;19913;-79
2021/12/17 08:46:47;;;;;;;;;;;;;;;7.71;54.22;100295.94;5026888;28;19971;-78
2021/12/17 08:49:13;;;;;;;;;;;;;;;7.93;54.36;100282.91;5026782;28;19921;-79
2021/12/17 08:51:38;;;;;;;;;;;;;;;8.05;53.87;100286.47;5026999;28;20357;-78
2021/12/17 08:54:04;;;;;;;;;;;;;;;8.13;53.63;100277.75;5026194;28;20027;-79
2021/12/17 08:56:31;;;;;;;;;;;;;;;8.03;53.05;100274.19;5027126;28;19917;-78
2021/12/17 08:58:58;;;;;;;;;;;;;;;8.09;54.28;100279.47;5039800;28;19928;-79
2021/12/17 09:01:23;;;;;;;;;;;;;;;8.00;53.30;100277.69;5047042;28;20012;-78
2021/12/17 09:03:49;;;;;;;;;;;;;;;7.90;54.35;100275.88;5047665;28;19920;-81
2021/12/17 09:06:15;;;;;;;;;;;;;;;8.01;55.07;100266.31;5047201;28;19923;-79
2021/12/17 09:08:41;;;;;;;;;;;;;;;8.22;53.55;100262.03;5046808;28;19917;-79
2021/12/17 09:11:06;;;;;;;;;;;;;;;8.33;54.09;100254.19;5047626;28;19924;-79
2021/12/17 09:13:32;;;;;;;;;;;;;;;8.37;54.52;100255.91;5046870;28;19917;-79
2021/12/17 09:15:58;;;;;;;;;;;;;;;8.46;53.72;100241.97;5047028;28;19917;-79
2021/12/17 09:18:24;;;;;;;;;;;;;;;8.31;54.05;100235.78;5046760;28;20681;-78
2021/12/17 09:20:49;;;;;;;;;;;;;;;8.25;54.12;100233.13;5046957;28;19924;-79
2021/12/17 09:23:15;;;;;;;;;;;;;;;8.25;54.38;100220.84;5047243;28;19919;-78
2021/12/17 09:25:40;;;;;;;;;;;;;;;8.33;55.41;100222.63;5046955;28;19917;-80
2021/12/17 09:28:05;;;;;;;;;;;;;;;8.28;54.62;100220.00;5049941;28;19916;-79
2021/12/17 09:30:31;;;;;;;;;;;;;;;8.15;53.93;100207.69;5050593;28;20480;-79
2021/12/17 09:32:56;;;;;;;;;;;;;;;8.22;55.12;100199.81;5050344;28;19921;-79
2021/12/17 09:35:24;;;;;;;;;;;;;;;8.48;54.36;100201.66;5051004;28;19916;-79
2021/12/17 09:37:49;;;;;;;;;;;;;;;8.25;54.33;100196.31;5050418;28;20031;-79
2021/12/17 09:40:15;;;;;;;;;;;;;;;8.56;54.63;100191.16;5050187;28;20760;-79
2021/12/17 09:42:42;;;;;;;;;;;;;;;8.58;55.39;100192.91;5050655;28;19917;-80
2021/12/17 09:45:08;;;;;;;;;;;;;;;8.72;53.68;100187.66;5050465;28;19931;-79
2021/12/17 09:47:34;;;;;;;;;;;;;;;8.60;53.79;100185.00;5050115;28;19917;-81
2021/12/17 09:49:59;;;;;;;;;;;;;;;8.53;54.73;100184.13;5048742;28;19917;-79
2021/12/17 09:52:25;;;;;;;;;;;;;;;8.50;55.06;100167.50;5040765;28;19917;-80
2021/12/17 09:54:51;;;;;;;;;;;;;;;8.45;55.62;100174.47;5030314;28;21018;-80
2021/12/17 09:57:19;;;;;;;;;;;;;;;8.37;54.55;100166.53;5030107;28;20036;-81
2021/12/17 09:59:44;;;;;;;;;;;;;;;8.56;55.35;100163.09;5030603;28;19971;-80
2021/12/17 10:02:10;;;;;;;;;;;;;;;8.53;55.61;100160.47;5030465;28;19963;-79
2021/12/17 10:04:36;;;;;;;;;;;;;;;8.43;55.39;100156.03;5030287;28;19928;-80
2021/12/17 10:07:19;;;;;;;;;;;;;;;8.38;55.82;100148.13;5029808;28;19990;-82
2021/12/17 10:09:54;;;;;;;;;;;;;;;8.25;56.40;100149.03;5030019;28;19971;-79
2021/12/17 10:12:30;;;;;;;;;;;;;;;8.25;56.14;100142.00;5029583;28;19966;-79
2021/12/17 10:15:02;;;;;;;;;;;;;;;8.29;56.70;100119.22;5030058;28;19925;-79
2021/12/17 10:17:28;;;;;;;;;;;;;;;8.44;55.45;100131.53;5029914;28;19960;-80
2021/12/17 10:19:53;;;;;;;;;;;;;;;8.55;55.88;100132.41;5029933;28;19949;-81
2021/12/17 10:22:20;;;;;;;;;;;;;;;8.55;55.78;100134.16;5029975;28;19995;-80
2021/12/17 10:24:55;;;;;;;;;;;;;;;8.62;55.91;100124.53;5029966;28;19917;-81
2021/12/17 10:27:21;;;;;;;;;;;;;;;8.42;56.44;100125.38;5029791;28;20674;-80
2021/12/17 10:29:47;;;;;;;;;;;;;;;8.44;57.02;100121.03;5029776;28;19943;-81
2021/12/17 10:32:16;;;;;;;;;;;;;;;8.52;57.10;100123.66;5030156;28;20338;-81
2021/12/17 10:34:58;;;;;;;;;;;;;;;8.39;57.50;100122.75;5029877;28;19913;-79
2021/12/17 10:37:38;;;;;;;;;;;;;;;8.44;57.86;100109.63;5029297;28;19916;-80
2021/12/17 10:40:24;;;;;;;;;;;;;;;8.69;57.86;100108.75;5029487;28;19917;-80
2021/12/17 10:42:59;;;;;;;;;;;;;;;8.64;56.58;100099.13;5029739;28;19920;-80
2021/12/17 10:45:27;;;;;;;;;;;;;;;8.56;57.97;100083.34;5029943;28;19913;-80
2021/12/17 10:49:17;;;;;;;;;;;;;;;8.49;57.95;100094.72;5029794;28;19946;-80
2021/12/17 10:51:13;;;;;;;;;;;;;;;8.56;57.65;100078.94;5030597;28;19921;-81
2021/12/17 10:53:43;;;;;;;;;;;;;;;8.44;57.23;100073.69;5049075;28;19916;-82
2021/12/17 10:56:14;;;;;;;;;;;;;;;8.56;56.32;100062.31;5047435;28;19954;-81
2021/12/17 10:58:51;;;;;;;;;;;;;;;8.52;56.01;100056.16;5048844;28;19921;-80
2021/12/17 11:01:16;;;;;;;;;;;;;;;8.59;56.79;100059.69;5049145;28;19916;-82
2021/12/17 11:03:42;;;;;;;;;;;;;;;8.67;56.47;100050.00;5032877;28;19917;-79
2021/12/17 11:06:08;;;;;;;;;;;;;;;8.87;56.81;100044.72;5028819;28;20015;-80
2021/12/17 11:08:37;;;;;;;;;;;;;;;8.81;55.96;100038.59;5028245;28;20524;-80
2021/12/17 11:11:12;;;;;;;;;;;;;;;8.80;56.30;100039.47;5028019;28;19917;-79
2021/12/17 11:13:58;;;;;;;;;;;;;;;8.72;56.11;100042.97;5028576;28;20408;-81
2021/12/17 11:16:26;;;;;;;;;;;;;;;8.85;56.06;100053.47;5043736;28;20367;-81
2021/12/17 11:18:52;;;;;;;;;;;;;;;8.90;55.13;100042.06;5029159;28;19952;-79
2021/12/17 11:21:18;;;;;;;;;;;;;;;8.78;56.35;100029.81;5028981;28;19917;-80
2021/12/17 11:23:43;;;;;;;;;;;;;;;8.69;55.04;100032.47;5028878;28;20315;-80
2021/12/17 11:26:09;;;;;;;;;;;;;;;8.76;55.25;100039.47;5028632;28;19960;-80
2021/12/17 11:28:34;;;;;;;;;;;;;;;8.87;55.61;100035.97;5028646;28;19952;-80
2021/12/17 11:31:00;;;;;;;;;;;;;;;8.93;55.66;100026.28;5028372;28;20018;-80
2021/12/17 11:33:26;;;;;;;;;;;;;;;9.07;55.86;100023.59;5028794;28;20447;-79
2021/12/17 11:35:51;;;;;;;;;;;;;;;8.99;54.85;100025.41;5028412;28;20517;-80
2021/12/17 11:38:19;;;;;;;;;;;;;;;8.91;54.68;100014.00;5028254;28;19928;-82
2021/12/17 11:40:53;;;;;;;;;;;;;;;8.93;54.96;100012.25;5028414;28;19916;-79
2021/12/17 11:43:36;;;;;;;;;;;;;;;8.98;55.52;99999.94;5028605;28;19916;-79
2021/12/17 11:46:06;;;;;;;;;;;;;;;9.01;54.51;100006.97;5028211;28;19912;-79
2021/12/17 11:48:32;;;;;;;;;;;;;;;9.02;55.44;100012.22;5028432;28;19920;-80
2021/12/17 11:51:17;;;;;;;;;;;;;;;8.99;55.16;100003.44;5027660;28;20334;-79
2021/12/17 11:53:55;;;;;;;;;;;;;;;9.14;54.65;99999.03;5028189;28;19916;-79
2021/12/17 11:56:51;;;;;;;;;;;;;;;9.01;54.23;99997.31;5027768;28;20462;-79
2021/12/17 11:59:25;;;;;;;;;;;;;;;8.99;55.47;99985.03;5019456;28;19955;-82
2021/12/17 12:02:00;;;;;;;;;;;;;;;9.02;54.75;99990.28;5028234;28;20005;-80
2021/12/17 12:04:31;;;;;;;;;;;;;;;8.99;55.65;99985.03;5027924;28;19982;-79
2021/12/17 12:07:12;;;;;;;;;;;;;;;9.00;54.38;99977.13;5028089;28;20391;-79
2021/12/17 12:09:57;;;;;;;;;;;;;;;9.06;55.12;99979.72;5028263;28;19917;-82
2021/12/17 12:12:42;;;;;;;;;;;;;;;9.07;54.14;99964.84;5036750;28;20296;-80
2021/12/17 12:15:16;;;;;;;;;;;;;;;9.10;54.06;99965.69;5027413;28;19920;-81
2021/12/17 12:17:57;;;;;;;;;;;;;;;9.10;54.47;99959.56;5027560;28;19920;-79
2021/12/17 12:20:38;;;;;;;;;;;;;;;9.07;54.88;99952.53;5026990;28;19995;-80
2021/12/17 12:23:22;;;;;;;;;;;;;;;9.05;54.05;99946.44;5026456;28;19990;-79
2021/12/17 12:26:08;;;;;;;;;;;;;;;9.29;54.51;99945.41;5026257;28;19927;-83
2021/12/17 12:28:42;;;;;;;;;;;;;;;9.21;54.20;99938.44;5027062;28;19921;-79
2021/12/17 12:31:08;;;;;;;;;;;;;;;9.34;54.32;99947.16;5027282;28;20443;-79
2021/12/17 12:33:33;;;;;;;;;;;;;;;9.16;53.47;99932.31;5026980;28;19950;-79
2021/12/17 12:35:58;;;;;;;;;;;;;;;9.09;53.60;99932.34;5027672;28;19919;-78
2021/12/17 12:38:28;;;;;;;;;;;;;;;9.08;54.20;99937.63;5027368;28;20307;-80
2021/12/17 12:40:56;;;;;;;;;;;;;;;9.16;53.80;99940.22;5027603;28;19917;-81
2021/12/17 12:43:26;;;;;;;;;;;;;;;9.07;54.61;99934.13;5027203;28;20454;-81
2021/12/17 12:45:51;;;;;;;;;;;;;;;9.21;53.98;99933.19;5027500;28;19966;-82
2021/12/17 12:48:33;;;;;;;;;;;;;;;9.12;54.23;99927.06;5027704;28;19917;-82
2021/12/17 12:51:21;;;;;;;;;;;;;;;9.26;54.48;99936.66;5027598;28;19913;-80
2021/12/17 12:54:08;;;;;;;;;;;;;;;9.37;53.91;99933.97;5021518;28;19917;-84
2021/12/17 12:56:37;;;;;;;;;;;;;;;9.29;54.10;99934.88;5027285;28;20027;-80
2021/12/17 12:59:05;;;;;;;;;;;;;;;9.17;53.87;99928.81;5027041;28;19917;-80
2021/12/17 13:01:31;;;;;;;;;;;;;;;9.09;54.56;99937.63;5029138;28;19917;-79
2021/12/17 13:03:56;;;;;;;;;;;;;;;9.03;54.72;99942.03;5031581;28;20449;-81
2021/12/17 13:06:22;;;;;;;;;;;;;;;9.06;54.67;99927.09;5030457;28;20803;-80
2021/12/17 13:08:55;;;;;;;;;;;;;;;9.02;55.36;99933.28;5031745;28;19925;-82
2021/12/17 13:11:21;;;;;;;;;;;;;;;9.14;55.29;99934.97;5030218;28;20031;-80
2021/12/17 13:13:56;;;;;;;;;;;;;;;9.28;55.29;99933.16;5031300;28;19917;-79
2021/12/17 13:24:16;;;;;;;;;;;;;;;9.10;55.22;99927.97;5031013;28;19924;-83
2021/12/17 13:26:46;;;;;;;;;;;;;;;9.23;55.92;99926.16;5030947;28;19991;-80
2021/12/17 13:29:14;;;;;;;;;;;;;;;9.31;55.77;99926.97;5038913;28;19913;-81
2021/12/17 13:31:44;;;;;;;;;;;;;;;9.14;56.42;99927.06;5050799;28;19923;-80
2021/12/17 13:34:22;;;;;;;;;;;;;;;9.07;57.05;99918.34;5050576;28;20011;-81
2021/12/17 13:36:59;;;;;;;;;;;;;;;9.19;56.23;99929.66;5049286;28;19924;-83
2021/12/17 13:39:27;;;;;;;;;;;;;;;8.91;56.60;99928.06;5051219;28;19961;-82
2021/12/17 13:41:52;;;;;;;;;;;;;;;8.76;56.54;99926.38;5049721;28;19919;-80
2021/12/17 13:44:36;;;;;;;;;;;;;;;8.88;56.52;99935.97;5050267;28;19917;-81
2021/12/17 13:47:07;;;;;;;;;;;;;;;8.78;56.54;99940.38;5050280;28;20732;-79
2021/12/17 13:49:32;;;;;;;;;;;;;;;8.86;57.35;99929.81;5050646;28;19917;-80
2021/12/17 13:51:58;;;;;;;;;;;;;;;8.63;57.40;99942.19;5035894;28;19921;-81
2021/12/17 13:54:24;;;;;;;;;;;;;;;8.74;57.80;99941.28;5030614;28;19932;-80
2021/12/17 13:56:59;;;;;;;;;;;;;;;8.89;58.16;99939.47;5030280;28;20770;-80
2021/12/17 13:59:43;;;;;;;;;;;;;;;8.87;56.47;99941.25;5029499;28;19987;-79
2021/12/17 14:02:19;;;;;;;;;;;;;;;8.93;56.93;99941.22;5030149;28;19924;-81
2021/12/17 14:05:19;;;;;;;;;;;;;;;9.02;56.83;99941.19;5029822;28;20727;-80
2021/12/17 14:07:48;;;;;;;;;;;;;;;8.65;56.80;99915.03;5031530;28;19999;-80
2021/12/17 14:10:21;;;;;;;;;;;;;;;8.51;58.42;99927.31;5050268;28;19912;-79
2021/12/17 14:12:47;;;;;;;;;;;;;;;8.66;58.16;99911.50;5049120;28;19923;-79
2021/12/17 14:15:20;;;;;;;;;;;;;;;8.43;57.96;99922.06;5050235;28;19917;-79
2021/12/17 14:17:47;;;;;;;;;;;;;;;8.44;57.49;99918.59;5050215;28;19923;-78
2021/12/17 14:20:13;;;;;;;;;;;;;;;8.59;57.51;99910.66;5048987;28;20398;-80
2021/12/17 14:22:40;;;;;;;;;;;;;;;8.45;58.20;99935.22;5049848;28;19916;-80
2021/12/17 14:25:24;;;;;;;;;;;;;;;8.49;57.71;99939.59;5048825;28;19932;-79
2021/12/17 14:27:50;;;;;;;;;;;;;;;8.21;59.12;99932.59;5049580;28;19916;-80
2021/12/17 14:30:21;;;;;;;;;;;;;;;8.36;59.23;99933.47;5030205;28;19924;-81
2021/12/17 14:32:46;;;;;;;;;;;;;;;8.37;59.67;99930.84;5031151;28;19964;-82
2021/12/17 14:35:12;;;;;;;;;;;;;;;8.22;60.15;99933.50;5038601;28;19941;-80
2021/12/17 14:37:51;;;;;;;;;;;;;;;8.34;59.83;99932.59;5029850;28;19917;-82
2021/12/17 14:40:48;;;;;;;;;;;;;;;8.21;59.33;99945.75;5029528;28;19921;-79
2021/12/17 14:43:22;;;;;;;;;;;;;;;7.91;60.91;99940.53;5029509;28;19924;-81
2021/12/17 14:45:53;;;;;;;;;;;;;;;8.02;59.91;99942.28;5029893;28;19916;-79
2021/12/17 14:48:22;;;;;;;;;;;;;;;7.94;60.49;99943.16;5028272;28;19978;-80
2021/12/17 15:04:43;;;;;;;;;;;;;;;7.50;62.29;99943.13;5029592;28;19913;-81
2021/12/17 15:07:08;;;;;;;;;;;;;;;7.54;61.85;99951.91;5029469;28;20371;-81
2021/12/17 15:09:35;;;;;;;;;;;;;;;7.46;62.51;99956.25;5029292;28;19948;-81
2021/12/17 15:12:12;;;;;;;;;;;;;;;7.40;62.63;99954.50;5029175;28;19920;-82
2021/12/17 15:14:37;;;;;;;;;;;;;;;7.25;63.99;99957.09;5028800;28;19928;-82
2021/12/17 15:17:02;;;;;;;;;;;;;;;7.08;64.96;99955.28;5028498;28;19947;-82
2021/12/17 15:19:28;;;;;;;;;;;;;;;6.83;66.20;99951.69;5029358;28;19924;-83
2021/12/17 15:21:53;;;;;;;;;;;;;;;6.81;66.82;99964.78;5029068;28;19913;-82
2021/12/17 15:24:18;;;;;;;;;;;;;;;6.80;67.37;99960.41;5028179;28;19986;-80
2021/12/17 15:26:44;;;;;;;;;;;;;;;6.69;67.71;99958.59;5028028;28;19913;-82
2021/12/17 15:29:09;;;;;;;;;;;;;;;6.67;69.40;99960.34;5028180;28;19913;-81
2021/12/17 15:31:35;;;;;;;;;;;;;;;6.42;70.29;99960.19;5028688;28;19921;-80
2021/12/17 15:34:00;;;;;;;;;;;;;;;6.57;71.81;99970.78;5028401;28;20024;-80
2021/12/17 15:36:25;;;;;;;;;;;;;;;6.35;71.51;99956.69;5028945;28;19913;-80
2021/12/17 15:38:51;;;;;;;;;;;;;;;6.23;72.50;99973.19;5029061;28;19913;-81
2021/12/17 15:41:16;;;;;;;;;;;;;;;6.11;72.75;99965.22;5028390;28;19917;-80
2021/12/17 15:43:41;;;;;;;;;;;;;;;5.95;72.65;99974.69;5028171;28;20372;-81
2021/12/17 15:46:06;;;;;;;;;;;;;;;6.00;73.09;99974.75;5028456;28;19924;-80
2021/12/17 15:48:32;;;;;;;;;;;;;;;5.97;72.73;99974.75;5028352;28;19917;-81
2021/12/17 15:50:57;;;;;;;;;;;;;;;6.08;72.92;99973.94;5028211;28;19963;-81
2021/12/17 15:53:22;;;;;;;;;;;;;;;5.92;73.20;99978.16;5028684;28;20003;-80
2021/12/17 15:55:48;;;;;;;;;;;;;;;6.00;73.60;99980.00;5027722;28;20445;-81
2021/12/17 15:58:13;;;;;;;;;;;;;;;5.75;72.72;99985.00;5027351;28;20385;-81
2021/12/17 16:00:39;;;;;;;;;;;;;;;5.89;73.11;99982.50;5028461;28;19913;-80
2021/12/17 16:03:06;;;;;;;;;;;;;;;5.94;73.36;99987.78;5028234;28;20776;-80
2021/12/17 16:05:33;;;;;;;;;;;;;;;5.93;73.53;99994.72;5028295;28;20784;-80